createdAt,value
2022-08-03T00:00:51.901Z,1009.96
2022-08-03T00:01:51.888Z,1009.94
2022-08-03T00:02:51.922Z,1009.91
2022-08-03T00:03:51.839Z,1009.99
2022-08-03T00:04:51.817Z,1010.00
2022-08-03T00:06:03.892Z,1009.97
2022-08-03T00:06:52.809Z,1009.95
2022-08-03T00:07:51.808Z,1009.92
2022-08-03T00:08:51.811Z,1009.97
2022-08-03T00:09:51.783Z,1009.96
2022-08-03T00:10:52.720Z,1009.97
2022-08-03T00:11:51.720Z,1009.99
2022-08-03T00:12:51.739Z,1010.00
2022-08-03T00:13:51.787Z,1009.97
2022-08-03T00:14:51.792Z,1009.99
2022-08-03T00:15:51.659Z,1009.95
2022-08-03T00:16:51.644Z,1009.95
2022-08-03T00:17:52.012Z,1009.95
2022-08-03T00:18:51.633Z,1009.92
2022-08-03T00:19:51.685Z,1009.94
2022-08-03T00:20:51.621Z,1009.95
2022-08-03T00:21:51.569Z,1009.92
2022-08-03T00:22:51.700Z,1009.91
2022-08-03T00:23:52.953Z,1009.91
2022-08-03T00:24:51.553Z,1009.92
2022-08-03T00:25:51.592Z,1009.88
2022-08-03T00:26:51.522Z,1009.89
2022-08-03T00:27:51.501Z,1009.84
2022-08-03T00:28:51.568Z,1009.86
2022-08-03T00:29:59.622Z,1009.91
2022-08-03T00:30:52.498Z,1009.87
2022-08-03T00:31:52.738Z,1009.88
2022-08-03T00:32:52.470Z,1009.88
2022-08-03T00:33:59.322Z,1009.87
2022-08-03T00:34:57.519Z,1009.87
2022-08-03T00:35:53.426Z,1009.84
2022-08-03T00:36:51.578Z,1009.85
2022-08-03T00:37:51.410Z,1009.85
2022-08-03T00:38:51.390Z,1009.87
2022-08-03T00:39:51.393Z,1009.85
2022-08-03T00:40:51.380Z,1009.87
2022-08-03T00:41:51.306Z,1009.87
2022-08-03T00:42:51.319Z,1009.83
2022-08-03T00:43:51.298Z,1009.84
2022-08-03T00:44:51.291Z,1009.81
2022-08-03T00:45:51.256Z,1009.82
2022-08-03T00:46:51.279Z,1009.79
2022-08-03T00:47:51.231Z,1009.79
2022-08-03T00:48:51.414Z,1009.82
2022-08-03T00:49:51.240Z,1009.84
2022-08-03T00:50:51.255Z,1009.82
2022-08-03T00:51:51.201Z,1009.81
2022-08-03T00:52:51.222Z,1009.82
2022-08-03T00:53:51.193Z,1009.81
2022-08-03T00:54:51.226Z,1009.79
2022-08-03T00:55:51.154Z,1009.83
2022-08-03T00:56:59.979Z,1009.78
2022-08-03T00:57:52.117Z,1009.76
2022-08-03T00:58:51.105Z,1009.75
2022-08-03T00:59:51.105Z,1009.73
2022-08-03T01:00:51.159Z,1009.76
2022-08-03T01:01:51.211Z,1009.76
2022-08-03T01:02:51.064Z,1009.72
2022-08-03T01:03:51.023Z,1009.72
2022-08-03T01:04:51.039Z,1009.72
2022-08-03T01:05:51.007Z,1009.73
2022-08-03T01:06:51.089Z,1009.69
2022-08-03T01:07:50.964Z,1009.77
2022-08-03T01:08:51.061Z,1009.69
2022-08-03T01:09:51.078Z,1009.75
2022-08-03T01:10:50.929Z,1009.70
2022-08-03T01:12:01.219Z,1009.75
2022-08-03T01:12:51.904Z,1009.72
2022-08-03T01:14:03.589Z,1009.75
2022-08-03T01:14:52.448Z,1009.72
2022-08-03T01:15:51.037Z,1009.69
2022-08-03T01:16:50.961Z,1009.72
2022-08-03T01:17:50.862Z,1009.70
2022-08-03T01:18:50.871Z,1009.70
2022-08-03T01:19:50.830Z,1009.71
2022-08-03T01:20:50.792Z,1009.74
2022-08-03T01:21:50.805Z,1009.76
2022-08-03T01:22:50.793Z,1009.72
2022-08-03T01:23:50.758Z,1009.72
2022-08-03T01:24:50.813Z,1009.69
2022-08-03T01:25:54.471Z,1009.69
2022-08-03T01:26:50.743Z,1009.71
2022-08-03T01:27:50.766Z,1009.64
2022-08-03T01:28:50.723Z,1009.64
2022-08-03T01:29:50.700Z,1009.69
2022-08-03T01:30:50.755Z,1009.66
2022-08-03T01:32:53.470Z,1009.64
2022-08-03T01:33:00.341Z,1009.65
2022-08-03T01:33:51.635Z,1009.67
2022-08-03T01:34:50.609Z,1009.68
2022-08-03T01:35:50.607Z,1009.67
2022-08-03T01:36:50.707Z,1009.65
2022-08-03T01:37:50.644Z,1009.70
2022-08-03T01:38:50.583Z,1009.69
2022-08-03T01:39:50.561Z,1009.71
2022-08-03T01:40:50.569Z,1009.74
2022-08-03T01:41:50.521Z,1009.75
2022-08-03T01:42:50.501Z,1009.78
2022-08-03T01:44:26.791Z,1009.75
2022-08-03T01:44:51.478Z,1009.71
2022-08-03T01:45:50.480Z,1009.71
2022-08-03T01:46:50.549Z,1009.71
2022-08-03T01:47:50.433Z,1009.72
2022-08-03T01:48:50.480Z,1009.69
2022-08-03T01:49:50.403Z,1009.73
2022-08-03T01:50:50.398Z,1009.70
2022-08-03T01:51:58.488Z,1009.73
2022-08-03T01:52:51.411Z,1009.68
2022-08-03T01:53:50.399Z,1009.67
2022-08-03T01:54:50.380Z,1009.68
2022-08-03T01:55:50.394Z,1009.68
2022-08-03T01:56:50.345Z,1009.68
2022-08-03T01:58:05.201Z,1009.70
2022-08-03T01:58:51.363Z,1009.72
2022-08-03T01:59:50.294Z,1009.69
2022-08-03T02:00:50.339Z,1009.69
2022-08-03T02:02:29.184Z,1009.69
2022-08-03T02:02:51.364Z,1009.69
2022-08-03T02:04:00.871Z,1009.66
2022-08-03T02:04:51.266Z,1009.65
2022-08-03T02:06:01.224Z,1009.66
2022-08-03T02:07:00.139Z,1009.70
2022-08-03T02:07:51.168Z,1009.67
2022-08-03T02:08:50.195Z,1009.65
2022-08-03T02:09:50.203Z,1009.67
2022-08-03T02:10:50.125Z,1009.65
2022-08-03T02:11:50.109Z,1009.63
2022-08-03T02:12:51.240Z,1009.63
2022-08-03T02:13:50.118Z,1009.66
2022-08-03T02:14:50.138Z,1009.63
2022-08-03T02:15:50.070Z,1009.66
2022-08-03T02:16:50.078Z,1009.69
2022-08-03T02:17:51.188Z,1009.67
2022-08-03T02:18:50.150Z,1009.69
2022-08-03T02:19:50.031Z,1009.63
2022-08-03T02:20:50.030Z,1009.63
2022-08-03T02:21:57.233Z,1009.63
2022-08-03T02:22:50.987Z,1009.59
2022-08-03T02:23:49.999Z,1009.64
2022-08-03T02:24:51.173Z,1009.62
2022-08-03T02:25:49.970Z,1009.63
2022-08-03T02:26:50.010Z,1009.59
2022-08-03T02:27:49.905Z,1009.63
2022-08-03T02:28:49.888Z,1009.62
2022-08-03T02:29:49.874Z,1009.63
2022-08-03T02:30:53.809Z,1009.63
2022-08-03T02:31:49.874Z,1009.62
2022-08-03T02:32:49.913Z,1009.62
2022-08-03T02:33:49.867Z,1009.63
2022-08-03T02:34:49.894Z,1009.60
2022-08-03T02:35:49.810Z,1009.60
2022-08-03T02:36:49.852Z,1009.60
2022-08-03T02:37:50.935Z,1009.65
2022-08-03T02:38:49.784Z,1009.65
2022-08-03T02:39:49.829Z,1009.61
2022-08-03T02:40:49.797Z,1009.62
2022-08-03T02:41:49.757Z,1009.60
2022-08-03T02:42:49.703Z,1009.61
2022-08-03T02:44:06.696Z,1009.62
2022-08-03T02:44:50.689Z,1009.58
2022-08-03T02:45:49.687Z,1009.59
2022-08-03T02:46:49.744Z,1009.58
2022-08-03T02:47:54.175Z,1009.58
2022-08-03T02:48:50.692Z,1009.60
2022-08-03T02:49:52.157Z,1009.60
2022-08-03T02:50:49.663Z,1009.58
2022-08-03T02:51:49.589Z,1009.54
2022-08-03T02:52:49.672Z,1009.57
2022-08-03T02:53:49.719Z,1009.52
2022-08-03T02:54:49.560Z,1009.56
2022-08-03T02:55:51.563Z,1009.56
2022-08-03T02:56:49.631Z,1009.56
2022-08-03T02:57:49.644Z,1009.51
2022-08-03T02:58:49.551Z,1009.49
2022-08-03T02:59:49.525Z,1009.50
2022-08-03T03:00:49.656Z,1009.49
2022-08-03T03:01:49.512Z,1009.50
2022-08-03T03:02:49.464Z,1009.46
2022-08-03T03:03:49.512Z,1009.50
2022-08-03T03:05:50.592Z,1009.50
2022-08-03T03:05:52.728Z,1009.48
2022-08-03T03:06:50.425Z,1009.48
2022-08-03T03:07:51.749Z,1009.48
2022-08-03T03:08:49.957Z,1009.47
2022-08-03T03:09:49.374Z,1009.53
2022-08-03T03:10:53.184Z,1009.47
2022-08-03T03:11:50.337Z,1009.48
2022-08-03T03:12:49.375Z,1009.47
2022-08-03T03:13:49.308Z,1009.45
2022-08-03T03:14:49.422Z,1009.43
2022-08-03T03:15:49.273Z,1009.44
2022-08-03T03:16:51.785Z,1009.39
2022-08-03T03:17:50.300Z,1009.42
2022-08-03T03:18:49.358Z,1009.41
2022-08-03T03:19:49.238Z,1009.37
2022-08-03T03:20:49.205Z,1009.40
2022-08-03T03:21:50.280Z,1009.33
2022-08-03T03:22:49.378Z,1009.36
2022-08-03T03:23:49.192Z,1009.34
2022-08-03T03:24:49.190Z,1009.34
2022-08-03T03:25:49.156Z,1009.36
2022-08-03T03:26:49.157Z,1009.36
2022-08-03T03:27:50.833Z,1009.38
2022-08-03T03:28:49.107Z,1009.31
2022-08-03T03:29:49.091Z,1009.33
2022-08-03T03:30:53.070Z,1009.33
2022-08-03T03:31:49.193Z,1009.37
2022-08-03T03:32:49.150Z,1009.39
2022-08-03T03:33:49.165Z,1009.38
2022-08-03T03:34:49.058Z,1009.41
2022-08-03T03:35:49.029Z,1009.36
2022-08-03T03:36:49.010Z,1009.38
2022-08-03T03:37:48.992Z,1009.37
2022-08-03T03:38:48.995Z,1009.38
2022-08-03T03:39:49.087Z,1009.38
2022-08-03T03:40:48.953Z,1009.39
2022-08-03T03:41:48.975Z,1009.38
2022-08-03T03:42:48.922Z,1009.41
2022-08-03T03:43:48.967Z,1009.39
2022-08-03T03:44:49.010Z,1009.41
2022-08-03T03:45:48.925Z,1009.43
2022-08-03T03:46:48.906Z,1009.40
2022-08-03T03:47:48.867Z,1009.40
2022-08-03T03:48:48.861Z,1009.39
2022-08-03T03:49:48.919Z,1009.42
2022-08-03T03:50:48.905Z,1009.43
2022-08-03T03:51:48.827Z,1009.42
2022-08-03T03:52:48.791Z,1009.42
2022-08-03T03:53:48.775Z,1009.42
2022-08-03T03:54:48.776Z,1009.44
2022-08-03T03:55:59.714Z,1009.45
2022-08-03T03:56:49.762Z,1009.46
2022-08-03T03:57:48.720Z,1009.42
2022-08-03T03:58:48.731Z,1009.43
2022-08-03T03:59:49.715Z,1009.44
2022-08-03T04:00:48.866Z,1009.45
2022-08-03T04:01:48.691Z,1009.46
2022-08-03T04:02:49.726Z,1009.42
2022-08-03T04:03:48.640Z,1009.48
2022-08-03T04:04:48.663Z,1009.42
2022-08-03T04:05:48.620Z,1009.45
2022-08-03T04:06:48.642Z,1009.41
2022-08-03T04:07:48.632Z,1009.44
2022-08-03T04:08:49.457Z,1009.44
2022-08-03T04:09:48.552Z,1009.45
2022-08-03T04:10:48.612Z,1009.45
2022-08-03T04:11:49.584Z,1009.49
2022-08-03T04:12:49.854Z,1009.42
2022-08-03T04:13:48.543Z,1009.48
2022-08-03T04:14:48.493Z,1009.48
2022-08-03T04:15:48.506Z,1009.45
2022-08-03T04:16:48.485Z,1009.44
2022-08-03T04:17:48.491Z,1009.49
2022-08-03T04:18:48.495Z,1009.47
2022-08-03T04:19:48.429Z,1009.45
2022-08-03T04:20:48.481Z,1009.44
2022-08-03T04:21:48.398Z,1009.46
2022-08-03T04:22:48.383Z,1009.43
2022-08-03T04:23:48.409Z,1009.47
2022-08-03T04:24:48.353Z,1009.45
2022-08-03T04:25:48.510Z,1009.46
2022-08-03T04:26:52.481Z,1009.48
2022-08-03T04:28:28.321Z,1009.47
2022-08-03T04:28:49.307Z,1009.47
2022-08-03T04:29:48.796Z,1009.48
2022-08-03T04:30:48.366Z,1009.49
2022-08-03T04:31:48.336Z,1009.50
2022-08-03T04:32:48.257Z,1009.48
2022-08-03T04:33:48.290Z,1009.50
2022-08-03T04:34:48.250Z,1009.51
2022-08-03T04:35:58.658Z,1009.50
2022-08-03T04:36:49.227Z,1009.53
2022-08-03T04:37:48.211Z,1009.56
2022-08-03T04:38:48.311Z,1009.56
2022-08-03T04:39:48.181Z,1009.57
2022-08-03T04:40:48.175Z,1009.61
2022-08-03T04:42:07.594Z,1009.63
2022-08-03T04:42:49.143Z,1009.64
2022-08-03T04:43:48.153Z,1009.63
2022-08-03T04:44:48.124Z,1009.62
2022-08-03T04:45:48.166Z,1009.66
2022-08-03T04:46:50.514Z,1009.60
2022-08-03T04:47:48.065Z,1009.61
2022-08-03T04:48:48.045Z,1009.63
2022-08-03T04:49:48.024Z,1009.59
2022-08-03T04:50:48.414Z,1009.62
2022-08-03T04:51:48.015Z,1009.61
2022-08-03T04:52:48.091Z,1009.62
2022-08-03T04:53:47.988Z,1009.61
2022-08-03T04:54:50.516Z,1009.66
2022-08-03T04:55:47.994Z,1009.60
2022-08-03T04:56:48.135Z,1009.63
2022-08-03T04:57:47.995Z,1009.64
2022-08-03T04:58:48.052Z,1009.64
2022-08-03T04:59:47.934Z,1009.64
2022-08-03T05:00:47.906Z,1009.66
2022-08-03T05:01:47.997Z,1009.71
2022-08-03T05:02:48.041Z,1009.66
2022-08-03T05:03:47.904Z,1009.68
2022-08-03T05:04:47.885Z,1009.70
2022-08-03T05:05:50.291Z,1009.70
2022-08-03T05:06:48.143Z,1009.70
2022-08-03T05:07:48.842Z,1009.69
2022-08-03T05:08:48.882Z,1009.72
2022-08-03T05:09:52.351Z,1009.76
2022-08-03T05:10:48.810Z,1009.75
2022-08-03T05:11:47.933Z,1009.71
2022-08-03T05:12:47.851Z,1009.73
2022-08-03T05:13:47.953Z,1009.74
2022-08-03T05:14:47.724Z,1009.71
2022-08-03T05:15:47.698Z,1009.74
2022-08-03T05:16:47.750Z,1009.70
2022-08-03T05:17:47.667Z,1009.72
2022-08-03T05:18:47.784Z,1009.74
2022-08-03T05:19:47.696Z,1009.75
2022-08-03T05:20:48.347Z,1009.75
2022-08-03T05:21:52.222Z,1009.77
2022-08-03T05:22:48.589Z,1009.75
2022-08-03T05:23:47.668Z,1009.76
2022-08-03T05:24:47.583Z,1009.75
2022-08-03T05:25:50.033Z,1009.69
2022-08-03T05:26:47.546Z,1009.72
2022-08-03T05:27:47.526Z,1009.71
2022-08-03T05:28:50.664Z,1009.69
2022-08-03T05:29:47.605Z,1009.69
2022-08-03T05:30:47.530Z,1009.71
2022-08-03T05:31:47.528Z,1009.68
2022-08-03T05:32:47.514Z,1009.69
2022-08-03T05:33:47.446Z,1009.66
2022-08-03T05:34:47.480Z,1009.67
2022-08-03T05:35:57.767Z,1009.69
2022-08-03T05:36:48.467Z,1009.69
2022-08-03T05:37:54.713Z,1009.72
2022-08-03T05:38:48.403Z,1009.73
2022-08-03T05:39:47.384Z,1009.68
2022-08-03T05:40:56.983Z,1009.70
2022-08-03T05:41:48.447Z,1009.72
2022-08-03T05:42:47.372Z,1009.68
2022-08-03T05:43:47.354Z,1009.67
2022-08-03T05:44:47.327Z,1009.68
2022-08-03T05:45:47.291Z,1009.65
2022-08-03T05:46:48.299Z,1009.70
2022-08-03T05:47:47.303Z,1009.70
2022-08-03T05:48:47.261Z,1009.72
2022-08-03T05:49:47.322Z,1009.73
2022-08-03T05:50:47.245Z,1009.70
2022-08-03T05:51:47.208Z,1009.74
2022-08-03T05:52:48.195Z,1009.71
2022-08-03T05:53:47.218Z,1009.68
2022-08-03T05:54:56.097Z,1009.67
2022-08-03T05:55:51.355Z,1009.66
2022-08-03T05:56:48.143Z,1009.69
2022-08-03T05:57:47.156Z,1009.70
2022-08-03T05:58:47.633Z,1009.73
2022-08-03T05:59:53.960Z,1009.68
2022-08-03T06:00:48.085Z,1009.72
2022-08-03T06:01:47.252Z,1009.74
2022-08-03T06:02:47.076Z,1009.69
2022-08-03T06:03:47.045Z,1009.73
2022-08-03T06:04:47.129Z,1009.69
2022-08-03T06:05:54.972Z,1009.74
2022-08-03T06:06:48.071Z,1009.73
2022-08-03T06:07:47.015Z,1009.72
2022-08-03T06:08:47.064Z,1009.73
2022-08-03T06:10:37.319Z,1009.76
2022-08-03T06:10:48.049Z,1009.75
2022-08-03T06:11:46.961Z,1009.75
2022-08-03T06:12:46.932Z,1009.71
2022-08-03T06:13:46.943Z,1009.71
2022-08-03T06:14:46.957Z,1009.74
2022-08-03T06:15:47.000Z,1009.76
2022-08-03T06:16:46.953Z,1009.72
2022-08-03T06:17:46.934Z,1009.74
2022-08-03T06:18:46.851Z,1009.74
2022-08-03T06:19:46.867Z,1009.78
2022-08-03T06:20:47.103Z,1009.78
2022-08-03T06:21:46.842Z,1009.80
2022-08-03T06:22:50.672Z,1009.79
2022-08-03T06:23:53.906Z,1009.78
2022-08-03T06:24:53.570Z,1009.78
2022-08-03T06:25:47.751Z,1009.80
2022-08-03T06:26:46.744Z,1009.81
2022-08-03T06:27:46.734Z,1009.82
2022-08-03T06:28:52.711Z,1009.80
2022-08-03T06:29:47.704Z,1009.78
2022-08-03T06:30:46.697Z,1009.80
2022-08-03T06:31:46.995Z,1009.82
2022-08-03T06:32:52.124Z,1009.82
2022-08-03T06:34:31.186Z,1009.84
2022-08-03T06:34:47.698Z,1009.84
2022-08-03T06:35:46.739Z,1009.84
2022-08-03T06:36:46.921Z,1009.89
2022-08-03T06:37:46.658Z,1009.91
2022-08-03T06:38:46.612Z,1009.89
2022-08-03T06:39:46.655Z,1009.91
2022-08-03T06:40:46.568Z,1009.88
2022-08-03T06:41:46.574Z,1009.83
2022-08-03T06:42:47.284Z,1009.85
2022-08-03T06:44:03.999Z,1009.84
2022-08-03T06:44:47.573Z,1009.86
2022-08-03T06:45:46.651Z,1009.88
2022-08-03T06:46:46.686Z,1009.86
2022-08-03T06:47:46.583Z,1009.93
2022-08-03T06:48:46.506Z,1009.94
2022-08-03T06:50:12.493Z,1009.89
2022-08-03T06:50:47.435Z,1009.93
2022-08-03T06:52:05.970Z,1009.90
2022-08-03T06:52:47.910Z,1009.89
2022-08-03T06:53:46.607Z,1009.90
2022-08-03T06:54:46.454Z,1009.91
2022-08-03T06:55:48.127Z,1009.90
2022-08-03T06:56:47.356Z,1009.91
2022-08-03T06:57:46.387Z,1009.92
2022-08-03T06:58:46.344Z,1009.90
2022-08-03T07:00:11.051Z,1009.94
2022-08-03T07:00:47.353Z,1009.95
2022-08-03T07:01:46.451Z,1009.96
2022-08-03T07:02:46.350Z,1009.94
2022-08-03T07:03:52.319Z,1009.94
2022-08-03T07:04:47.313Z,1010.01
2022-08-03T07:05:46.876Z,1009.96
2022-08-03T07:06:46.225Z,1009.99
2022-08-03T07:07:46.228Z,1009.97
2022-08-03T07:08:49.469Z,1009.96
2022-08-03T07:09:57.578Z,1010.01
2022-08-03T07:10:47.276Z,1010.01
2022-08-03T07:11:46.172Z,1010.00
2022-08-03T07:12:56.097Z,1010.03
2022-08-03T07:13:47.132Z,1010.03
2022-08-03T07:14:46.116Z,1010.02
2022-08-03T07:15:55.430Z,1010.03
2022-08-03T07:16:47.124Z,1010.01
2022-08-03T07:17:46.104Z,1010.00
2022-08-03T07:18:46.084Z,1010.05
2022-08-03T07:19:46.068Z,1010.05
2022-08-03T07:20:46.117Z,1010.01
2022-08-03T07:21:46.045Z,1010.04
2022-08-03T07:22:47.493Z,1010.04
2022-08-03T07:23:47.025Z,1010.02
2022-08-03T07:24:46.010Z,1010.11
2022-08-03T07:25:46.064Z,1010.10
2022-08-03T07:26:46.001Z,1010.10
2022-08-03T07:27:50.022Z,1010.09
2022-08-03T07:28:46.937Z,1010.11
2022-08-03T07:29:45.970Z,1010.09
2022-08-03T07:30:45.913Z,1010.17
2022-08-03T07:31:45.908Z,1010.13
2022-08-03T07:32:50.387Z,1010.16
2022-08-03T07:33:46.873Z,1010.20
2022-08-03T07:34:45.861Z,1010.20
2022-08-03T07:35:45.992Z,1010.18
2022-08-03T07:36:46.479Z,1010.18
2022-08-03T07:37:54.634Z,1010.16
2022-08-03T07:38:46.813Z,1010.16
2022-08-03T07:39:45.800Z,1010.18
2022-08-03T07:40:46.453Z,1010.14
2022-08-03T07:41:45.847Z,1010.16
2022-08-03T07:42:45.792Z,1010.15
2022-08-03T07:43:45.887Z,1010.13
2022-08-03T07:44:45.745Z,1010.17
2022-08-03T07:45:45.760Z,1010.18
2022-08-03T07:46:45.726Z,1010.22
2022-08-03T07:47:46.237Z,1010.16
2022-08-03T07:48:48.189Z,1010.10
2022-08-03T07:49:45.656Z,1010.16
2022-08-03T07:50:45.738Z,1010.14
2022-08-03T07:51:45.639Z,1010.15
2022-08-03T07:52:45.656Z,1010.18
2022-08-03T07:53:47.820Z,1010.18
2022-08-03T07:54:47.240Z,1010.17
2022-08-03T07:55:45.875Z,1010.20
2022-08-03T07:56:45.567Z,1010.15
2022-08-03T07:57:45.547Z,1010.18
2022-08-03T07:58:47.033Z,1010.14
2022-08-03T07:59:56.735Z,1010.13
2022-08-03T08:00:46.727Z,1010.13
2022-08-03T08:01:45.738Z,1010.12
2022-08-03T08:02:45.553Z,1010.08
2022-08-03T08:03:53.433Z,1010.11
2022-08-03T08:04:47.173Z,1010.13
2022-08-03T08:05:45.444Z,1010.11
2022-08-03T08:06:45.465Z,1010.12
2022-08-03T08:07:51.444Z,1010.12
2022-08-03T08:08:46.493Z,1010.13
2022-08-03T08:09:45.393Z,1010.06
2022-08-03T08:10:58.288Z,1010.08
2022-08-03T08:11:46.364Z,1010.08
2022-08-03T08:12:45.358Z,1010.07
2022-08-03T08:13:46.326Z,1010.08
2022-08-03T08:14:45.624Z,1010.03
2022-08-03T08:15:45.348Z,1010.00
2022-08-03T08:16:45.349Z,1010.02
2022-08-03T08:17:45.309Z,1010.05
2022-08-03T08:18:45.729Z,1010.01
2022-08-03T08:19:51.367Z,1010.03
2022-08-03T08:20:46.785Z,1010.06
2022-08-03T08:21:53.077Z,1010.02
2022-08-03T08:22:46.257Z,1010.02
2022-08-03T08:23:50.551Z,1010.04
2022-08-03T08:24:47.309Z,1010.00
2022-08-03T08:25:46.193Z,1010.04
2022-08-03T08:26:45.234Z,1009.99
2022-08-03T08:28:30.619Z,1010.02
2022-08-03T08:28:46.190Z,1010.03
2022-08-03T08:29:47.597Z,1010.02
2022-08-03T08:30:46.163Z,1009.99
2022-08-03T08:31:45.110Z,1010.04
2022-08-03T08:32:45.233Z,1010.02
2022-08-03T08:34:46.095Z,1010.03
2022-08-03T08:35:45.093Z,1010.00
2022-08-03T08:36:45.087Z,1009.98
2022-08-03T08:37:50.919Z,1009.97
2022-08-03T08:38:46.046Z,1009.97
2022-08-03T08:39:45.003Z,1009.91
2022-08-03T08:40:45.020Z,1009.93
2022-08-03T08:41:45.840Z,1009.93
2022-08-03T08:42:58.051Z,1009.93
2022-08-03T08:43:45.958Z,1009.99
2022-08-03T08:44:44.948Z,1009.94
2022-08-03T08:45:44.950Z,1009.98
2022-08-03T08:46:45.071Z,1009.99
2022-08-03T08:47:51.243Z,1009.97
2022-08-03T08:48:45.887Z,1010.02
2022-08-03T08:50:03.875Z,1010.02
2022-08-03T08:50:45.872Z,1009.99
2022-08-03T08:51:59.318Z,1010.03
2022-08-03T08:52:45.992Z,1010.01
2022-08-03T08:53:44.892Z,1010.04
2022-08-03T08:54:44.817Z,1010.07
2022-08-03T08:55:58.921Z,1010.03
2022-08-03T08:56:45.854Z,1009.99
2022-08-03T08:57:44.866Z,1010.01
2022-08-03T08:58:44.866Z,1010.07
2022-08-03T08:59:48.412Z,1010.03
2022-08-03T09:00:44.771Z,1010.00
2022-08-03T09:01:44.786Z,1010.00
2022-08-03T09:02:44.734Z,1009.95
2022-08-03T09:03:44.695Z,1009.96
2022-08-03T09:04:44.920Z,1009.95
2022-08-03T09:05:55.825Z,1010.01
2022-08-03T09:06:58.841Z,1009.95
2022-08-03T09:07:45.691Z,1010.02
2022-08-03T09:08:44.669Z,1009.99
2022-08-03T09:10:10.162Z,1009.97
2022-08-03T09:10:45.672Z,1010.00
2022-08-03T09:12:01.051Z,1009.99
2022-08-03T09:12:45.620Z,1009.97
2022-08-03T09:13:44.567Z,1009.95
2022-08-03T09:15:00.755Z,1009.97
2022-08-03T09:16:00.770Z,1010.00
2022-08-03T09:16:45.552Z,1009.95
2022-08-03T09:17:50.369Z,1009.97
2022-08-03T09:18:45.499Z,1009.97
2022-08-03T09:20:03.535Z,1009.96
2022-08-03T09:20:45.471Z,1009.97
2022-08-03T09:21:44.535Z,1009.89
2022-08-03T09:22:44.493Z,1009.92
2022-08-03T09:24:00.578Z,1009.90
2022-08-03T09:24:45.586Z,1010.00
2022-08-03T09:25:44.413Z,1009.93
2022-08-03T09:26:44.520Z,1009.96
2022-08-03T09:27:44.398Z,1009.95
2022-08-03T09:28:58.005Z,1009.96
2022-08-03T09:29:45.697Z,1009.98
2022-08-03T09:30:44.396Z,1010.00
2022-08-03T09:31:44.992Z,1009.95
2022-08-03T09:32:44.369Z,1009.93
2022-08-03T09:33:44.338Z,1009.97
2022-08-03T09:34:44.299Z,1009.99
2022-08-03T09:35:53.622Z,1009.93
2022-08-03T09:36:45.302Z,1009.91
2022-08-03T09:38:11.868Z,1009.93
2022-08-03T09:38:45.244Z,1009.88
2022-08-03T09:39:44.279Z,1009.90
2022-08-03T09:40:44.243Z,1009.90
2022-08-03T09:41:44.208Z,1009.94
2022-08-03T09:42:44.191Z,1009.88
2022-08-03T09:43:44.207Z,1009.94
2022-08-03T09:44:44.162Z,1009.84
2022-08-03T09:45:44.142Z,1009.82
2022-08-03T09:46:44.684Z,1009.82
2022-08-03T09:47:45.318Z,1009.82
2022-08-03T09:48:44.152Z,1009.84
2022-08-03T09:49:44.212Z,1009.85
2022-08-03T09:50:56.976Z,1009.80
2022-08-03T09:52:31.467Z,1009.85
2022-08-03T09:52:50.166Z,1009.88
2022-08-03T09:53:58.885Z,1009.88
2022-08-03T09:54:45.019Z,1009.86
2022-08-03T09:56:34.961Z,1009.84
2022-08-03T09:56:45.080Z,1009.77
2022-08-03T09:57:43.988Z,1009.79
2022-08-03T09:58:43.978Z,1009.76
2022-08-03T09:59:43.981Z,1009.77
2022-08-03T10:00:44.007Z,1009.83
2022-08-03T10:01:44.011Z,1009.90
2022-08-03T10:02:43.967Z,1009.81
2022-08-03T10:04:03.194Z,1009.79
2022-08-03T10:04:44.940Z,1009.80
2022-08-03T10:05:43.943Z,1009.75
2022-08-03T10:06:45.861Z,1009.78
2022-08-03T10:07:45.906Z,1009.72
2022-08-03T10:08:43.875Z,1009.72
2022-08-03T10:09:43.868Z,1009.77
2022-08-03T10:10:44.031Z,1009.72
2022-08-03T10:11:43.835Z,1009.67
2022-08-03T10:12:43.833Z,1009.70
2022-08-03T10:13:43.794Z,1009.67
2022-08-03T10:14:43.808Z,1009.71
2022-08-03T10:16:21.712Z,1009.73
2022-08-03T10:16:44.754Z,1009.64
2022-08-03T10:17:43.727Z,1009.78
2022-08-03T10:18:43.795Z,1009.69
2022-08-03T10:19:43.700Z,1009.70
2022-08-03T10:20:43.779Z,1009.72
2022-08-03T10:21:43.722Z,1009.68
2022-08-03T10:22:43.738Z,1009.64
2022-08-03T10:23:43.701Z,1009.63
2022-08-03T10:24:43.692Z,1009.60
2022-08-03T10:25:43.619Z,1009.66
2022-08-03T10:26:49.714Z,1009.63
2022-08-03T10:27:44.630Z,1009.69
2022-08-03T10:28:45.542Z,1009.64
2022-08-03T10:29:43.589Z,1009.70
2022-08-03T10:30:43.560Z,1009.64
2022-08-03T10:31:54.553Z,1009.59
2022-08-03T10:32:44.592Z,1009.53
2022-08-03T10:33:50.158Z,1009.56
2022-08-03T10:34:44.982Z,1009.54
2022-08-03T10:35:43.541Z,1009.55
2022-08-03T10:36:43.481Z,1009.55
2022-08-03T10:37:43.504Z,1009.53
2022-08-03T10:38:44.474Z,1009.61
2022-08-03T10:39:43.449Z,1009.64
2022-08-03T10:40:53.599Z,1009.58
2022-08-03T10:41:44.487Z,1009.55
2022-08-03T10:42:43.441Z,1009.48
2022-08-03T10:43:43.474Z,1009.54
2022-08-03T10:44:43.471Z,1009.53
2022-08-03T10:45:43.382Z,1009.53
2022-08-03T10:46:45.166Z,1009.54
2022-08-03T10:47:43.375Z,1009.54
2022-08-03T10:48:43.663Z,1009.50
2022-08-03T10:49:43.433Z,1009.52
2022-08-03T10:50:43.333Z,1009.46
2022-08-03T10:51:43.329Z,1009.45
2022-08-03T10:52:45.377Z,1009.49
2022-08-03T10:53:52.847Z,1009.47
2022-08-03T10:54:44.254Z,1009.50
2022-08-03T10:55:43.282Z,1009.51
2022-08-03T10:56:49.667Z,1009.50
2022-08-03T10:57:44.299Z,1009.51
2022-08-03T10:58:53.291Z,1009.45
2022-08-03T10:59:44.203Z,1009.45
2022-08-03T11:00:43.193Z,1009.46
2022-08-03T11:01:58.483Z,1009.53
2022-08-03T11:02:44.177Z,1009.56
2022-08-03T11:03:43.166Z,1009.50
2022-08-03T11:04:43.235Z,1009.46
2022-08-03T11:05:43.149Z,1009.47
2022-08-03T11:06:43.156Z,1009.52
2022-08-03T11:07:44.560Z,1009.41
2022-08-03T11:08:44.882Z,1009.50
2022-08-03T11:09:43.199Z,1009.51
2022-08-03T11:10:43.041Z,1009.50
2022-08-03T11:11:43.156Z,1009.50
2022-08-03T11:12:43.080Z,1009.56
2022-08-03T11:13:43.053Z,1009.53
2022-08-03T11:14:42.987Z,1009.50
2022-08-03T11:15:43.133Z,1009.52
2022-08-03T11:16:42.973Z,1009.50
2022-08-03T11:17:46.378Z,1009.47
2022-08-03T11:18:44.219Z,1009.45
2022-08-03T11:19:57.018Z,1009.47
2022-08-03T11:20:43.913Z,1009.43
2022-08-03T11:21:42.903Z,1009.48
2022-08-03T11:22:42.955Z,1009.31
2022-08-03T11:24:04.387Z,1009.31
2022-08-03T11:24:43.903Z,1009.21
2022-08-03T11:25:54.831Z,1009.29
2022-08-03T11:26:44.085Z,1009.29
2022-08-03T11:27:42.865Z,1009.33
2022-08-03T11:28:42.886Z,1009.38
2022-08-03T11:29:43.187Z,1009.40
2022-08-03T11:30:42.879Z,1009.43
2022-08-03T11:31:51.485Z,1009.34
2022-08-03T11:32:46.638Z,1009.31
2022-08-03T11:33:44.290Z,1009.38
2022-08-03T11:34:42.926Z,1009.36
2022-08-03T11:35:42.783Z,1009.37
2022-08-03T11:36:42.718Z,1009.35
2022-08-03T11:37:43.651Z,1009.30
2022-08-03T11:38:43.694Z,1009.29
2022-08-03T11:39:42.808Z,1009.32
2022-08-03T11:40:42.772Z,1009.31
2022-08-03T11:41:45.440Z,1009.29
2022-08-03T11:42:42.713Z,1009.24
2022-08-03T11:43:42.623Z,1009.23
2022-08-03T11:44:42.602Z,1009.26
2022-08-03T11:45:43.628Z,1009.31
2022-08-03T11:46:42.574Z,1009.32
2022-08-03T11:47:50.690Z,1009.25
2022-08-03T11:48:43.908Z,1009.23
2022-08-03T11:49:43.651Z,1009.28
2022-08-03T11:50:42.602Z,1009.30
2022-08-03T11:51:42.584Z,1009.33
2022-08-03T11:52:42.534Z,1009.25
2022-08-03T11:53:42.668Z,1009.29
2022-08-03T11:54:42.478Z,1009.25
2022-08-03T11:55:42.515Z,1009.31
2022-08-03T11:56:42.519Z,1009.33
2022-08-03T11:59:02.706Z,1009.32
2022-08-03T11:59:12.868Z,1009.32
2022-08-03T11:59:43.492Z,1009.40
2022-08-03T12:00:42.412Z,1009.24
2022-08-03T12:01:42.465Z,1009.28
2022-08-03T12:02:42.419Z,1009.29
2022-08-03T12:03:42.505Z,1009.30
2022-08-03T12:04:42.354Z,1009.24
2022-08-03T12:05:42.384Z,1009.26
2022-08-03T12:06:47.253Z,1009.25